sensor_id;sensor_type;location;lat;lon;timestamp;temperature;humidity
6142;DHT22;71289;51.552;6.210;2023-12-07T00:00:34;1.50;99.90
6142;DHT22;71289;51.552;6.210;2023-12-07T00:02:59;1.50;99.90
6142;DHT22;71289;51.552;6.210;2023-12-07T00:05:25;1.50;99.90
6142;DHT22;71289;51.552;6.210;2023-12-07T00:07:51;1.50;99.90
6142;DHT22;71289;51.552;6.210;2023-12-07T00:10:16;1.50;99.90
6142;DHT22;71289;51.552;6.210;2023-12-07T00:12:42;1.50;99.90
6142;DHT22;71289;51.552;6.210;2023-12-07T00:15:08;1.50;99.90
6142;DHT22;71289;51.552;6.210;2023-12-07T00:17:33;1.50;99.90
6142;DHT22;71289;51.552;6.210;2023-12-07T00:19:59;1.60;99.90
6142;DHT22;71289;51.552;6.210;2023-12-07T00:22:25;1.60;99.90
6142;DHT22;71289;51.552;6.210;2023-12-07T00:24:51;1.60;99.90
6142;DHT22;71289;51.552;6.210;2023-12-07T00:27:17;1.50;99.90
6142;DHT22;71289;51.552;6.210;2023-12-07T00:29:43;1.50;99.90
6142;DHT22;71289;51.552;6.210;2023-12-07T00:32:08;1.40;99.90
6142;DHT22;71289;51.552;6.210;2023-12-07T00:34:34;1.40;99.90
6142;DHT22;71289;51.552;6.210;2023-12-07T00:36:59;1.40;99.90
6142;DHT22;71289;51.552;6.210;2023-12-07T00:39:25;1.40;99.90
6142;DHT22;71289;51.552;6.210;2023-12-07T00:41:50;1.30;99.90
6142;DHT22;71289;51.552;6.210;2023-12-07T00:44:16;1.30;99.90
6142;DHT22;71289;51.552;6.210;2023-12-07T00:46:41;1.20;99.90
6142;DHT22;71289;51.552;6.210;2023-12-07T00:49:07;1.20;99.90
6142;DHT22;71289;51.552;6.210;2023-12-07T00:51:32;1.20;99.90
6142;DHT22;71289;51.552;6.210;2023-12-07T00:53:58;1.30;99.90
6142;DHT22;71289;51.552;6.210;2023-12-07T00:56:24;1.30;99.90
6142;DHT22;71289;51.552;6.210;2023-12-07T00:58:50;1.40;99.90
6142;DHT22;71289;51.552;6.210;2023-12-07T01:01:15;1.30;99.90
6142;DHT22;71289;51.552;6.210;2023-12-07T01:03:41;1.40;99.90
6142;DHT22;71289;51.552;6.210;2023-12-07T01:06:07;1.20;99.90
6142;DHT22;71289;51.552;6.210;2023-12-07T01:08:32;1.20;99.90
6142;DHT22;71289;51.552;6.210;2023-12-07T01:10:58;1.10;99.90
6142;DHT22;71289;51.552;6.210;2023-12-07T01:13:24;1.10;99.90
6142;DHT22;71289;51.552;6.210;2023-12-07T01:15:50;1.00;99.90
6142;DHT22;71289;51.552;6.210;2023-12-07T01:18:16;1.00;99.90
6142;DHT22;71289;51.552;6.210;2023-12-07T01:20:42;0.80;99.90
6142;DHT22;71289;51.552;6.210;2023-12-07T01:23:07;0.70;99.90
6142;DHT22;71289;51.552;6.210;2023-12-07T01:25:36;0.70;99.90
6142;DHT22;71289;51.552;6.210;2023-12-07T01:28:01;0.70;99.90
6142;DHT22;71289;51.552;6.210;2023-12-07T01:30:27;0.70;99.90
6142;DHT22;71289;51.552;6.210;2023-12-07T01:32:53;0.60;99.90
6142;DHT22;71289;51.552;6.210;2023-12-07T01:35:18;0.60;99.90
6142;DHT22;71289;51.552;6.210;2023-12-07T01:37:44;0.60;99.90
6142;DHT22;71289;51.552;6.210;2023-12-07T01:40:09;0.60;99.90
6142;DHT22;71289;51.552;6.210;2023-12-07T01:42:37;0.60;99.90
6142;DHT22;71289;51.552;6.210;2023-12-07T01:45:04;0.60;99.90
6142;DHT22;71289;51.552;6.210;2023-12-07T01:47:30;0.60;99.90
6142;DHT22;71289;51.552;6.210;2023-12-07T01:49:56;0.60;99.90
6142;DHT22;71289;51.552;6.210;2023-12-07T01:52:25;0.60;99.90
6142;DHT22;71289;51.552;6.210;2023-12-07T01:54:52;0.60;99.90
6142;DHT22;71289;51.552;6.210;2023-12-07T01:57:18;0.60;99.90
6142;DHT22;71289;51.552;6.210;2023-12-07T01:59:44;0.70;99.90
6142;DHT22;71289;51.552;6.210;2023-12-07T02:02:09;0.80;99.90
6142;DHT22;71289;51.552;6.210;2023-12-07T02:04:35;0.90;99.90
6142;DHT22;71289;51.552;6.210;2023-12-07T02:07:01;0.90;99.90
6142;DHT22;71289;51.552;6.210;2023-12-07T02:09:28;0.90;99.90
6142;DHT22;71289;51.552;6.210;2023-12-07T02:11:53;0.90;99.90
6142;DHT22;71289;51.552;6.210;2023-12-07T02:14:19;0.90;99.90
6142;DHT22;71289;51.552;6.210;2023-12-07T02:22:17;0.90;99.90
6142;DHT22;71289;51.552;6.210;2023-12-07T02:24:48;0.90;99.90
6142;DHT22;71289;51.552;6.210;2023-12-07T02:27:42;0.90;99.90
6142;DHT22;71289;51.552;6.210;2023-12-07T02:30:10;0.90;99.90
6142;DHT22;71289;51.552;6.210;2023-12-07T02:32:40;0.70;99.90
6142;DHT22;71289;51.552;6.210;2023-12-07T02:35:07;0.80;99.90
6142;DHT22;71289;51.552;6.210;2023-12-07T02:37:37;0.80;99.90
6142;DHT22;71289;51.552;6.210;2023-12-07T02:40:05;0.80;99.90
6142;DHT22;71289;51.552;6.210;2023-12-07T02:42:35;0.80;99.90
6142;DHT22;71289;51.552;6.210;2023-12-07T02:45:03;0.70;99.90
6142;DHT22;71289;51.552;6.210;2023-12-07T02:47:29;0.70;99.90
6142;DHT22;71289;51.552;6.210;2023-12-07T02:49:54;0.80;99.90
6142;DHT22;71289;51.552;6.210;2023-12-07T02:52:20;0.70;99.90
6142;DHT22;71289;51.552;6.210;2023-12-07T02:54:45;0.80;99.90
6142;DHT22;71289;51.552;6.210;2023-12-07T02:57:11;0.90;99.90
6142;DHT22;71289;51.552;6.210;2023-12-07T02:59:36;0.80;99.90
6142;DHT22;71289;51.552;6.210;2023-12-07T03:02:03;0.80;99.90
6142;DHT22;71289;51.552;6.210;2023-12-07T03:04:28;0.80;99.90
6142;DHT22;71289;51.552;6.210;2023-12-07T03:06:54;0.80;99.90
6142;DHT22;71289;51.552;6.210;2023-12-07T03:09:19;0.90;99.90
6142;DHT22;71289;51.552;6.210;2023-12-07T03:11:45;0.90;99.90
6142;DHT22;71289;51.552;6.210;2023-12-07T03:14:10;1.00;99.90
6142;DHT22;71289;51.552;6.210;2023-12-07T03:16:36;1.10;99.90
6142;DHT22;71289;51.552;6.210;2023-12-07T03:19:01;1.20;99.90
6142;DHT22;71289;51.552;6.210;2023-12-07T03:21:27;1.20;99.90
6142;DHT22;71289;51.552;6.210;2023-12-07T03:23:53;1.30;99.90
6142;DHT22;71289;51.552;6.210;2023-12-07T03:26:18;1.30;99.90
6142;DHT22;71289;51.552;6.210;2023-12-07T03:28:44;1.40;99.90
6142;DHT22;71289;51.552;6.210;2023-12-07T03:31:10;1.40;99.90
6142;DHT22;71289;51.552;6.210;2023-12-07T03:33:35;1.40;99.90
6142;DHT22;71289;51.552;6.210;2023-12-07T03:36:01;1.40;99.90
6142;DHT22;71289;51.552;6.210;2023-12-07T03:38:27;1.40;99.90
6142;DHT22;71289;51.552;6.210;2023-12-07T03:40:53;1.60;99.90
6142;DHT22;71289;51.552;6.210;2023-12-07T03:43:19;1.30;99.90
6142;DHT22;71289;51.552;6.210;2023-12-07T03:45:46;1.60;99.90
6142;DHT22;71289;51.552;6.210;2023-12-07T03:48:12;1.50;99.90
6142;DHT22;71289;51.552;6.210;2023-12-07T03:50:37;1.60;99.90
6142;DHT22;71289;51.552;6.210;2023-12-07T03:53:03;1.50;99.90
6142;DHT22;71289;51.552;6.210;2023-12-07T03:55:28;1.40;99.90
6142;DHT22;71289;51.552;6.210;2023-12-07T03:57:54;1.40;99.90
6142;DHT22;71289;51.552;6.210;2023-12-07T04:00:19;1.30;99.90
6142;DHT22;71289;51.552;6.210;2023-12-07T04:02:45;1.30;99.90
6142;DHT22;71289;51.552;6.210;2023-12-07T04:05:11;1.10;99.90
6142;DHT22;71289;51.552;6.210;2023-12-07T04:07:37;1.10;99.90
6142;DHT22;71289;51.552;6.210;2023-12-07T04:10:03;1.10;99.90
6142;DHT22;71289;51.552;6.210;2023-12-07T04:12:31;1.10;99.90
6142;DHT22;71289;51.552;6.210;2023-12-07T04:14:57;1.00;99.90
6142;DHT22;71289;51.552;6.210;2023-12-07T04:17:22;0.90;99.90
6142;DHT22;71289;51.552;6.210;2023-12-07T04:19:48;0.90;99.90
6142;DHT22;71289;51.552;6.210;2023-12-07T04:22:13;0.90;99.90
6142;DHT22;71289;51.552;6.210;2023-12-07T04:24:39;1.00;99.90
6142;DHT22;71289;51.552;6.210;2023-12-07T04:27:04;1.00;99.90
6142;DHT22;71289;51.552;6.210;2023-12-07T04:29:30;1.00;99.90
6142;DHT22;71289;51.552;6.210;2023-12-07T04:31:55;1.00;99.90
6142;DHT22;71289;51.552;6.210;2023-12-07T04:34:21;1.00;99.90
6142;DHT22;71289;51.552;6.210;2023-12-07T04:36:46;1.00;99.90
6142;DHT22;71289;51.552;6.210;2023-12-07T04:39:12;0.90;99.90
6142;DHT22;71289;51.552;6.210;2023-12-07T04:41:37;0.80;99.90
6142;DHT22;71289;51.552;6.210;2023-12-07T04:44:03;0.90;99.90
6142;DHT22;71289;51.552;6.210;2023-12-07T04:46:29;0.90;99.90
6142;DHT22;71289;51.552;6.210;2023-12-07T04:48:55;0.80;99.90
6142;DHT22;71289;51.552;6.210;2023-12-07T04:51:20;0.80;99.90
6142;DHT22;71289;51.552;6.210;2023-12-07T04:53:47;0.90;99.90
6142;DHT22;71289;51.552;6.210;2023-12-07T04:56:12;0.80;99.90
6142;DHT22;71289;51.552;6.210;2023-12-07T04:58:38;0.70;99.90
6142;DHT22;71289;51.552;6.210;2023-12-07T05:01:04;0.70;99.90
6142;DHT22;71289;51.552;6.210;2023-12-07T05:03:30;0.70;99.90
6142;DHT22;71289;51.552;6.210;2023-12-07T05:05:55;0.70;99.90
6142;DHT22;71289;51.552;6.210;2023-12-07T05:08:21;0.70;99.90
6142;DHT22;71289;51.552;6.210;2023-12-07T05:10:46;0.80;99.90
6142;DHT22;71289;51.552;6.210;2023-12-07T05:13:12;0.80;99.90
6142;DHT22;71289;51.552;6.210;2023-12-07T05:15:37;0.80;99.90
6142;DHT22;71289;51.552;6.210;2023-12-07T05:18:03;0.90;99.90
6142;DHT22;71289;51.552;6.210;2023-12-07T05:20:28;1.00;99.90
6142;DHT22;71289;51.552;6.210;2023-12-07T05:22:54;0.80;99.90
6142;DHT22;71289;51.552;6.210;2023-12-07T05:25:20;0.70;99.90
6142;DHT22;71289;51.552;6.210;2023-12-07T05:27:45;0.80;99.90
6142;DHT22;71289;51.552;6.210;2023-12-07T05:30:11;0.80;99.90
6142;DHT22;71289;51.552;6.210;2023-12-07T05:32:38;0.90;99.90
6142;DHT22;71289;51.552;6.210;2023-12-07T05:35:04;0.90;99.90
6142;DHT22;71289;51.552;6.210;2023-12-07T05:37:31;1.00;99.90
6142;DHT22;71289;51.552;6.210;2023-12-07T05:39:57;1.00;99.90
6142;DHT22;71289;51.552;6.210;2023-12-07T05:42:22;1.10;99.90
6142;DHT22;71289;51.552;6.210;2023-12-07T05:44:48;1.30;99.90
6142;DHT22;71289;51.552;6.210;2023-12-07T05:47:13;1.10;99.90
6142;DHT22;71289;51.552;6.210;2023-12-07T05:49:39;1.20;99.90
6142;DHT22;71289;51.552;6.210;2023-12-07T05:52:04;1.20;99.90
6142;DHT22;71289;51.552;6.210;2023-12-07T05:54:30;1.10;99.90
6142;DHT22;71289;51.552;6.210;2023-12-07T05:56:55;1.10;99.90
6142;DHT22;71289;51.552;6.210;2023-12-07T05:59:21;1.10;99.90
6142;DHT22;71289;51.552;6.210;2023-12-07T06:01:47;1.10;99.90
6142;DHT22;71289;51.552;6.210;2023-12-07T06:04:14;1.20;99.90
6142;DHT22;71289;51.552;6.210;2023-12-07T06:06:41;1.30;99.90
6142;DHT22;71289;51.552;6.210;2023-12-07T06:09:06;1.30;99.90
6142;DHT22;71289;51.552;6.210;2023-12-07T06:11:33;1.20;99.90
6142;DHT22;71289;51.552;6.210;2023-12-07T06:14:00;1.10;99.90
6142;DHT22;71289;51.552;6.210;2023-12-07T06:16:26;1.10;99.90
6142;DHT22;71289;51.552;6.210;2023-12-07T06:18:51;1.10;99.90
6142;DHT22;71289;51.552;6.210;2023-12-07T06:21:17;1.20;99.90
6142;DHT22;71289;51.552;6.210;2023-12-07T06:23:42;1.30;99.90
6142;DHT22;71289;51.552;6.210;2023-12-07T06:26:08;1.20;99.90
6142;DHT22;71289;51.552;6.210;2023-12-07T06:28:33;1.20;99.90
6142;DHT22;71289;51.552;6.210;2023-12-07T06:31:08;1.30;99.90
6142;DHT22;71289;51.552;6.210;2023-12-07T06:33:34;1.60;99.90
6142;DHT22;71289;51.552;6.210;2023-12-07T06:36:00;1.30;99.90
6142;DHT22;71289;51.552;6.210;2023-12-07T06:38:26;1.30;99.90
6142;DHT22;71289;51.552;6.210;2023-12-07T06:40:52;1.30;99.90
6142;DHT22;71289;51.552;6.210;2023-12-07T06:43:17;1.30;99.90
6142;DHT22;71289;51.552;6.210;2023-12-07T06:45:43;1.30;99.90
6142;DHT22;71289;51.552;6.210;2023-12-07T06:48:08;1.40;99.90
6142;DHT22;71289;51.552;6.210;2023-12-07T06:50:34;1.40;99.90
6142;DHT22;71289;51.552;6.210;2023-12-07T06:52:59;1.40;99.90
6142;DHT22;71289;51.552;6.210;2023-12-07T06:55:25;1.40;99.90
6142;DHT22;71289;51.552;6.210;2023-12-07T06:57:50;1.40;99.90
6142;DHT22;71289;51.552;6.210;2023-12-07T07:00:16;1.40;99.90
6142;DHT22;71289;51.552;6.210;2023-12-07T07:02:43;1.50;99.90
6142;DHT22;71289;51.552;6.210;2023-12-07T07:05:09;1.50;99.90
6142;DHT22;71289;51.552;6.210;2023-12-07T07:07:37;1.60;99.90
6142;DHT22;71289;51.552;6.210;2023-12-07T07:10:02;1.60;99.90
6142;DHT22;71289;51.552;6.210;2023-12-07T07:12:28;1.50;99.90
6142;DHT22;71289;51.552;6.210;2023-12-07T07:14:54;1.40;99.90
6142;DHT22;71289;51.552;6.210;2023-12-07T07:17:20;1.50;99.90
6142;DHT22;71289;51.552;6.210;2023-12-07T07:19:46;1.60;99.90
6142;DHT22;71289;51.552;6.210;2023-12-07T07:22:11;1.60;99.90
6142;DHT22;71289;51.552;6.210;2023-12-07T07:24:37;1.60;99.90
6142;DHT22;71289;51.552;6.210;2023-12-07T07:27:02;1.60;99.90
6142;DHT22;71289;51.552;6.210;2023-12-07T07:29:28;1.70;99.90
6142;DHT22;71289;51.552;6.210;2023-12-07T07:31:54;1.60;99.90
6142;DHT22;71289;51.552;6.210;2023-12-07T07:34:19;1.70;99.90
6142;DHT22;71289;51.552;6.210;2023-12-07T07:36:45;1.80;99.90
6142;DHT22;71289;51.552;6.210;2023-12-07T07:39:10;1.80;99.90
6142;DHT22;71289;51.552;6.210;2023-12-07T07:41:39;1.80;99.90
6142;DHT22;71289;51.552;6.210;2023-12-07T07:44:05;1.90;99.90
6142;DHT22;71289;51.552;6.210;2023-12-07T07:46:30;1.80;99.90
6142;DHT22;71289;51.552;6.210;2023-12-07T07:48:56;1.90;99.90
6142;DHT22;71289;51.552;6.210;2023-12-07T07:51:21;1.80;99.90
6142;DHT22;71289;51.552;6.210;2023-12-07T07:53:47;1.80;99.90
6142;DHT22;71289;51.552;6.210;2023-12-07T07:56:12;1.80;99.90
6142;DHT22;71289;51.552;6.210;2023-12-07T07:58:38;1.80;99.90
6142;DHT22;71289;51.552;6.210;2023-12-07T08:01:03;1.70;99.90
6142;DHT22;71289;51.552;6.210;2023-12-07T08:03:29;1.70;99.90
6142;DHT22;71289;51.552;6.210;2023-12-07T08:05:55;1.70;99.90
6142;DHT22;71289;51.552;6.210;2023-12-07T08:08:20;1.80;99.90
6142;DHT22;71289;51.552;6.210;2023-12-07T08:10:46;1.80;99.90
6142;DHT22;71289;51.552;6.210;2023-12-07T08:13:12;1.80;99.90
6142;DHT22;71289;51.552;6.210;2023-12-07T08:15:37;1.90;99.90
6142;DHT22;71289;51.552;6.210;2023-12-07T08:18:03;1.90;99.90
6142;DHT22;71289;51.552;6.210;2023-12-07T08:20:28;1.90;99.90
6142;DHT22;71289;51.552;6.210;2023-12-07T08:22:54;2.10;99.90
6142;DHT22;71289;51.552;6.210;2023-12-07T08:25:19;2.00;99.90
6142;DHT22;71289;51.552;6.210;2023-12-07T08:27:46;2.00;99.90
6142;DHT22;71289;51.552;6.210;2023-12-07T08:30:12;2.00;99.90
6142;DHT22;71289;51.552;6.210;2023-12-07T08:32:38;2.00;99.90
6142;DHT22;71289;51.552;6.210;2023-12-07T08:35:05;2.10;99.90
6142;DHT22;71289;51.552;6.210;2023-12-07T08:37:31;2.10;99.90
6142;DHT22;71289;51.552;6.210;2023-12-07T08:39:58;2.10;99.90
6142;DHT22;71289;51.552;6.210;2023-12-07T08:42:23;2.20;99.90
6142;DHT22;71289;51.552;6.210;2023-12-07T08:44:49;2.10;99.90
6142;DHT22;71289;51.552;6.210;2023-12-07T08:47:14;2.10;99.90
6142;DHT22;71289;51.552;6.210;2023-12-07T08:49:40;2.20;99.90
6142;DHT22;71289;51.552;6.210;2023-12-07T08:52:05;2.20;99.90
6142;DHT22;71289;51.552;6.210;2023-12-07T08:54:31;2.20;99.90
6142;DHT22;71289;51.552;6.210;2023-12-07T08:56:57;2.20;99.90
6142;DHT22;71289;51.552;6.210;2023-12-07T08:59:22;2.20;99.90
6142;DHT22;71289;51.552;6.210;2023-12-07T09:01:48;2.20;99.90
6142;DHT22;71289;51.552;6.210;2023-12-07T09:04:13;2.20;99.90
6142;DHT22;71289;51.552;6.210;2023-12-07T09:06:39;2.20;99.90
6142;DHT22;71289;51.552;6.210;2023-12-07T09:09:04;2.20;99.90
6142;DHT22;71289;51.552;6.210;2023-12-07T09:11:30;2.10;99.90
6142;DHT22;71289;51.552;6.210;2023-12-07T09:13:56;2.00;99.90
6142;DHT22;71289;51.552;6.210;2023-12-07T09:16:22;2.10;99.90
6142;DHT22;71289;51.552;6.210;2023-12-07T09:18:48;2.10;99.90
6142;DHT22;71289;51.552;6.210;2023-12-07T09:21:13;2.20;99.90
6142;DHT22;71289;51.552;6.210;2023-12-07T09:23:39;2.30;99.90
6142;DHT22;71289;51.552;6.210;2023-12-07T09:26:04;2.30;99.90
6142;DHT22;71289;51.552;6.210;2023-12-07T09:28:31;2.30;99.90
6142;DHT22;71289;51.552;6.210;2023-12-07T09:30:58;2.30;99.90
6142;DHT22;71289;51.552;6.210;2023-12-07T09:33:24;2.40;99.90
6142;DHT22;71289;51.552;6.210;2023-12-07T09:35:49;2.50;99.90
6142;DHT22;71289;51.552;6.210;2023-12-07T09:38:15;2.50;99.90
6142;DHT22;71289;51.552;6.210;2023-12-07T09:40:40;2.50;99.90
6142;DHT22;71289;51.552;6.210;2023-12-07T09:43:06;2.50;99.90
6142;DHT22;71289;51.552;6.210;2023-12-07T09:45:32;2.60;99.90
6142;DHT22;71289;51.552;6.210;2023-12-07T09:47:57;2.70;99.90
6142;DHT22;71289;51.552;6.210;2023-12-07T09:50:26;2.70;99.90
6142;DHT22;71289;51.552;6.210;2023-12-07T09:52:54;2.70;99.90
6142;DHT22;71289;51.552;6.210;2023-12-07T09:55:22;2.70;99.90
6142;DHT22;71289;51.552;6.210;2023-12-07T09:57:51;2.80;99.90
6142;DHT22;71289;51.552;6.210;2023-12-07T10:00:19;2.80;99.90
6142;DHT22;71289;51.552;6.210;2023-12-07T10:02:46;2.80;99.90
6142;DHT22;71289;51.552;6.210;2023-12-07T10:05:13;2.80;99.90
6142;DHT22;71289;51.552;6.210;2023-12-07T10:07:46;2.80;99.90
6142;DHT22;71289;51.552;6.210;2023-12-07T10:10:13;2.80;99.90
6142;DHT22;71289;51.552;6.210;2023-12-07T10:12:53;2.80;99.90
6142;DHT22;71289;51.552;6.210;2023-12-07T10:15:20;3.00;99.90
6142;DHT22;71289;51.552;6.210;2023-12-07T10:17:50;2.90;99.90
6142;DHT22;71289;51.552;6.210;2023-12-07T10:20:24;2.90;99.90
6142;DHT22;71289;51.552;6.210;2023-12-07T10:23:08;3.10;99.90
6142;DHT22;71289;51.552;6.210;2023-12-07T10:25:40;3.00;99.90
6142;DHT22;71289;51.552;6.210;2023-12-07T10:28:10;3.00;99.90
6142;DHT22;71289;51.552;6.210;2023-12-07T10:30:41;3.00;99.90
6142;DHT22;71289;51.552;6.210;2023-12-07T10:33:07;3.10;99.90
6142;DHT22;71289;51.552;6.210;2023-12-07T10:35:33;3.00;99.90
6142;DHT22;71289;51.552;6.210;2023-12-07T10:37:59;3.00;99.90
6142;DHT22;71289;51.552;6.210;2023-12-07T10:40:25;3.00;99.90
6142;DHT22;71289;51.552;6.210;2023-12-07T10:42:53;3.10;99.90
6142;DHT22;71289;51.552;6.210;2023-12-07T10:45:22;3.10;99.90
6142;DHT22;71289;51.552;6.210;2023-12-07T10:47:51;3.00;99.90
6142;DHT22;71289;51.552;6.210;2023-12-07T10:50:22;3.10;99.90
6142;DHT22;71289;51.552;6.210;2023-12-07T10:52:52;3.10;99.90
6142;DHT22;71289;51.552;6.210;2023-12-07T10:55:22;3.00;99.90
6142;DHT22;71289;51.552;6.210;2023-12-07T10:57:52;2.90;99.90
6142;DHT22;71289;51.552;6.210;2023-12-07T11:00:18;2.80;99.90
6142;DHT22;71289;51.552;6.210;2023-12-07T11:02:45;2.60;99.90
6142;DHT22;71289;51.552;6.210;2023-12-07T11:05:11;2.60;99.90
6142;DHT22;71289;51.552;6.210;2023-12-07T11:10:22;2.80;99.90
6142;DHT22;71289;51.552;6.210;2023-12-07T11:13:00;2.80;99.90
6142;DHT22;71289;51.552;6.210;2023-12-07T11:15:26;2.80;99.90
6142;DHT22;71289;51.552;6.210;2023-12-07T11:17:57;2.70;99.90
6142;DHT22;71289;51.552;6.210;2023-12-07T11:20:32;2.70;99.90
6142;DHT22;71289;51.552;6.210;2023-12-07T11:22:59;2.80;99.90
6142;DHT22;71289;51.552;6.210;2023-12-07T11:25:25;2.70;99.90
6142;DHT22;71289;51.552;6.210;2023-12-07T11:28:03;2.80;99.90
6142;DHT22;71289;51.552;6.210;2023-12-07T11:30:35;3.20;99.90
6142;DHT22;71289;51.552;6.210;2023-12-07T11:33:03;2.80;99.90
6142;DHT22;71289;51.552;6.210;2023-12-07T11:35:29;2.90;99.90
6142;DHT22;71289;51.552;6.210;2023-12-07T11:40:32;3.10;99.90
6142;DHT22;71289;51.552;6.210;2023-12-07T11:42:59;3.20;99.90
6142;DHT22;71289;51.552;6.210;2023-12-07T11:45:41;3.30;99.90
6142;DHT22;71289;51.552;6.210;2023-12-07T11:48:09;3.40;99.90
6142;DHT22;71289;51.552;6.210;2023-12-07T11:50:34;3.60;99.90
6142;DHT22;71289;51.552;6.210;2023-12-07T11:53:00;3.70;99.90
6142;DHT22;71289;51.552;6.210;2023-12-07T11:55:25;4.00;99.90
6142;DHT22;71289;51.552;6.210;2023-12-07T11:57:51;4.20;99.90
6142;DHT22;71289;51.552;6.210;2023-12-07T12:00:17;4.40;99.90
6142;DHT22;71289;51.552;6.210;2023-12-07T12:02:43;4.60;99.90
6142;DHT22;71289;51.552;6.210;2023-12-07T12:05:12;4.70;99.90
6142;DHT22;71289;51.552;6.210;2023-12-07T12:07:37;4.90;99.90
6142;DHT22;71289;51.552;6.210;2023-12-07T12:10:03;5.00;99.90
6142;DHT22;71289;51.552;6.210;2023-12-07T12:12:29;5.10;99.90
6142;DHT22;71289;51.552;6.210;2023-12-07T12:14:58;5.20;99.90
6142;DHT22;71289;51.552;6.210;2023-12-07T12:17:23;5.50;99.90
6142;DHT22;71289;51.552;6.210;2023-12-07T12:19:50;5.60;99.90
6142;DHT22;71289;51.552;6.210;2023-12-07T12:22:20;5.50;99.90
6142;DHT22;71289;51.552;6.210;2023-12-07T12:24:46;5.20;99.90
6142;DHT22;71289;51.552;6.210;2023-12-07T12:27:13;5.00;99.90
6142;DHT22;71289;51.552;6.210;2023-12-07T12:29:39;4.90;99.90
6142;DHT22;71289;51.552;6.210;2023-12-07T12:32:05;4.90;99.90
6142;DHT22;71289;51.552;6.210;2023-12-07T12:34:34;4.90;99.90
6142;DHT22;71289;51.552;6.210;2023-12-07T12:37:00;5.20;99.90
6142;DHT22;71289;51.552;6.210;2023-12-07T12:39:29;5.20;99.90
6142;DHT22;71289;51.552;6.210;2023-12-07T12:41:56;5.40;99.90
6142;DHT22;71289;51.552;6.210;2023-12-07T12:44:23;5.50;99.90
6142;DHT22;71289;51.552;6.210;2023-12-07T12:46:48;5.80;99.90
6142;DHT22;71289;51.552;6.210;2023-12-07T12:49:14;6.10;99.90
6142;DHT22;71289;51.552;6.210;2023-12-07T12:51:44;6.40;99.90
6142;DHT22;71289;51.552;6.210;2023-12-07T12:54:09;6.90;99.90
6142;DHT22;71289;51.552;6.210;2023-12-07T12:56:36;7.00;99.90
6142;DHT22;71289;51.552;6.210;2023-12-07T12:59:02;7.10;99.90
6142;DHT22;71289;51.552;6.210;2023-12-07T13:01:28;7.20;99.90
6142;DHT22;71289;51.552;6.210;2023-12-07T13:03:53;7.10;99.90
6142;DHT22;71289;51.552;6.210;2023-12-07T13:06:19;6.90;99.90
6142;DHT22;71289;51.552;6.210;2023-12-07T13:08:46;7.00;99.90
6142;DHT22;71289;51.552;6.210;2023-12-07T13:11:18;6.90;99.90
6142;DHT22;71289;51.552;6.210;2023-12-07T13:13:45;7.00;99.90
6142;DHT22;71289;51.552;6.210;2023-12-07T13:16:12;7.00;99.90
6142;DHT22;71289;51.552;6.210;2023-12-07T13:18:38;6.90;99.90
6142;DHT22;71289;51.552;6.210;2023-12-07T13:21:04;6.90;99.90
6142;DHT22;71289;51.552;6.210;2023-12-07T13:23:29;6.80;99.90
6142;DHT22;71289;51.552;6.210;2023-12-07T13:25:55;6.80;99.90
6142;DHT22;71289;51.552;6.210;2023-12-07T13:28:21;6.70;99.90
6142;DHT22;71289;51.552;6.210;2023-12-07T13:30:47;6.60;99.90
6142;DHT22;71289;51.552;6.210;2023-12-07T13:33:13;6.60;99.90
6142;DHT22;71289;51.552;6.210;2023-12-07T13:35:38;6.70;99.90
6142;DHT22;71289;51.552;6.210;2023-12-07T13:38:04;6.80;99.90
6142;DHT22;71289;51.552;6.210;2023-12-07T13:40:30;6.80;99.90
6142;DHT22;71289;51.552;6.210;2023-12-07T13:42:55;6.80;99.90
6142;DHT22;71289;51.552;6.210;2023-12-07T13:45:21;6.80;99.90
6142;DHT22;71289;51.552;6.210;2023-12-07T13:47:46;6.70;99.90
6142;DHT22;71289;51.552;6.210;2023-12-07T13:50:13;6.50;99.90
6142;DHT22;71289;51.552;6.210;2023-12-07T13:52:39;6.40;99.90
6142;DHT22;71289;51.552;6.210;2023-12-07T13:55:04;6.20;99.90
6142;DHT22;71289;51.552;6.210;2023-12-07T13:57:30;6.20;99.90
6142;DHT22;71289;51.552;6.210;2023-12-07T13:59:56;6.30;99.90
6142;DHT22;71289;51.552;6.210;2023-12-07T14:02:22;5.90;99.90
6142;DHT22;71289;51.552;6.210;2023-12-07T14:04:49;5.70;99.90
6142;DHT22;71289;51.552;6.210;2023-12-07T14:07:16;5.60;99.90
6142;DHT22;71289;51.552;6.210;2023-12-07T14:09:44;5.50;99.90
6142;DHT22;71289;51.552;6.210;2023-12-07T14:12:10;5.30;99.90
6142;DHT22;71289;51.552;6.210;2023-12-07T14:14:41;5.30;99.90
6142;DHT22;71289;51.552;6.210;2023-12-07T14:17:07;5.20;99.90
6142;DHT22;71289;51.552;6.210;2023-12-07T14:19:33;5.00;99.90
6142;DHT22;71289;51.552;6.210;2023-12-07T14:21:58;4.80;99.90
6142;DHT22;71289;51.552;6.210;2023-12-07T14:24:25;4.60;99.90
6142;DHT22;71289;51.552;6.210;2023-12-07T14:26:51;4.60;99.90
6142;DHT22;71289;51.552;6.210;2023-12-07T14:29:17;4.40;99.90
6142;DHT22;71289;51.552;6.210;2023-12-07T14:31:45;4.40;99.90
6142;DHT22;71289;51.552;6.210;2023-12-07T14:34:10;4.40;99.90
6142;DHT22;71289;51.552;6.210;2023-12-07T14:36:36;4.30;99.90
6142;DHT22;71289;51.552;6.210;2023-12-07T14:39:04;4.10;99.90
6142;DHT22;71289;51.552;6.210;2023-12-07T14:41:33;4.00;99.90
6142;DHT22;71289;51.552;6.210;2023-12-07T14:43:59;4.00;99.90
6142;DHT22;71289;51.552;6.210;2023-12-07T14:46:24;3.90;99.90
6142;DHT22;71289;51.552;6.210;2023-12-07T14:48:50;3.90;99.90
6142;DHT22;71289;51.552;6.210;2023-12-07T14:51:18;3.90;99.90
6142;DHT22;71289;51.552;6.210;2023-12-07T14:53:46;3.90;99.90
6142;DHT22;71289;51.552;6.210;2023-12-07T14:56:12;3.90;99.90
6142;DHT22;71289;51.552;6.210;2023-12-07T14:58:37;3.80;99.90
6142;DHT22;71289;51.552;6.210;2023-12-07T15:01:08;3.80;99.90
6142;DHT22;71289;51.552;6.210;2023-12-07T15:03:34;3.70;99.90
6142;DHT22;71289;51.552;6.210;2023-12-07T15:06:00;3.70;99.90
6142;DHT22;71289;51.552;6.210;2023-12-07T15:08:26;3.80;99.90
6142;DHT22;71289;51.552;6.210;2023-12-07T15:10:52;3.70;99.90
6142;DHT22;71289;51.552;6.210;2023-12-07T15:13:18;3.80;99.90
6142;DHT22;71289;51.552;6.210;2023-12-07T15:15:44;3.80;99.90
6142;DHT22;71289;51.552;6.210;2023-12-07T15:18:10;3.70;99.90
6142;DHT22;71289;51.552;6.210;2023-12-07T15:20:36;3.70;99.90
6142;DHT22;71289;51.552;6.210;2023-12-07T15:23:01;3.80;99.90
6142;DHT22;71289;51.552;6.210;2023-12-07T15:25:27;3.80;99.90
6142;DHT22;71289;51.552;6.210;2023-12-07T15:27:54;3.80;99.90
6142;DHT22;71289;51.552;6.210;2023-12-07T15:30:20;3.60;99.90
6142;DHT22;71289;51.552;6.210;2023-12-07T15:32:49;3.60;99.90
6142;DHT22;71289;51.552;6.210;2023-12-07T15:35:14;3.60;99.90
6142;DHT22;71289;51.552;6.210;2023-12-07T15:37:40;3.60;99.90
6142;DHT22;71289;51.552;6.210;2023-12-07T15:40:06;3.50;99.90
6142;DHT22;71289;51.552;6.210;2023-12-07T15:42:38;3.60;99.90
6142;DHT22;71289;51.552;6.210;2023-12-07T15:45:08;3.60;99.90
6142;DHT22;71289;51.552;6.210;2023-12-07T15:47:34;3.70;99.90
6142;DHT22;71289;51.552;6.210;2023-12-07T15:49:59;3.70;99.90
6142;DHT22;71289;51.552;6.210;2023-12-07T15:52:25;3.70;99.90
6142;DHT22;71289;51.552;6.210;2023-12-07T15:54:51;3.70;99.90
6142;DHT22;71289;51.552;6.210;2023-12-07T15:57:16;3.70;99.90
6142;DHT22;71289;51.552;6.210;2023-12-07T15:59:42;3.60;99.90
6142;DHT22;71289;51.552;6.210;2023-12-07T16:02:09;3.50;99.90
6142;DHT22;71289;51.552;6.210;2023-12-07T16:04:35;3.40;99.90
6142;DHT22;71289;51.552;6.210;2023-12-07T16:07:01;3.40;99.90